sensor_id;sensor_type;location;lat;lon;timestamp;P1;durP1;ratioP1;P2;durP2;ratioP2
15637;SDS011;26604;53.596;10.042;2023-05-10T00:00:47;7.88;;;2.53;;
15637;SDS011;26604;53.596;10.042;2023-05-10T00:03:14;9.73;;;3.55;;
15637;SDS011;26604;53.596;10.042;2023-05-10T00:05:41;3.22;;;2.42;;
15637;SDS011;26604;53.596;10.042;2023-05-10T00:08:08;5.00;;;2.75;;
15637;SDS011;26604;53.596;10.042;2023-05-10T00:10:35;5.38;;;3.00;;
15637;SDS011;26604;53.596;10.042;2023-05-10T00:13:02;4.75;;;2.85;;
15637;SDS011;26604;53.596;10.042;2023-05-10T00:15:29;5.80;;;3.15;;
15637;SDS011;26604;53.596;10.042;2023-05-10T00:17:57;6.70;;;3.20;;
15637;SDS011;26604;53.596;10.042;2023-05-10T00:20:24;3.60;;;2.95;;
15637;SDS011;26604;53.596;10.042;2023-05-10T00:22:51;8.55;;;2.92;;
15637;SDS011;26604;53.596;10.042;2023-05-10T00:25:18;5.55;;;2.53;;
15637;SDS011;26604;53.596;10.042;2023-05-10T00:27:46;4.43;;;2.90;;
15637;SDS011;26604;53.596;10.042;2023-05-10T00:30:13;3.17;;;2.60;;
15637;SDS011;26604;53.596;10.042;2023-05-10T00:32:40;5.30;;;2.75;;
15637;SDS011;26604;53.596;10.042;2023-05-10T00:35:09;6.65;;;2.90;;
15637;SDS011;26604;53.596;10.042;2023-05-10T00:37:36;5.00;;;3.20;;
15637;SDS011;26604;53.596;10.042;2023-05-10T00:40:03;5.70;;;2.70;;
15637;SDS011;26604;53.596;10.042;2023-05-10T00:42:31;4.68;;;3.10;;
15637;SDS011;26604;53.596;10.042;2023-05-10T00:44:58;5.05;;;3.08;;
15637;SDS011;26604;53.596;10.042;2023-05-10T00:47:25;7.75;;;3.20;;
15637;SDS011;26604;53.596;10.042;2023-05-10T00:49:52;4.50;;;2.67;;
15637;SDS011;26604;53.596;10.042;2023-05-10T00:52:22;6.20;;;2.92;;
15637;SDS011;26604;53.596;10.042;2023-05-10T00:54:49;7.63;;;3.03;;
15637;SDS011;26604;53.596;10.042;2023-05-10T00:57:18;8.07;;;3.15;;
15637;SDS011;26604;53.596;10.042;2023-05-10T00:59:45;5.75;;;3.25;;
15637;SDS011;26604;53.596;10.042;2023-05-10T01:02:12;8.55;;;3.05;;
15637;SDS011;26604;53.596;10.042;2023-05-10T01:04:39;5.93;;;2.72;;
15637;SDS011;26604;53.596;10.042;2023-05-10T01:07:06;5.63;;;2.50;;
15637;SDS011;26604;53.596;10.042;2023-05-10T01:09:34;4.57;;;3.10;;
15637;SDS011;26604;53.596;10.042;2023-05-10T01:12:01;5.55;;;3.20;;
15637;SDS011;26604;53.596;10.042;2023-05-10T01:14:31;6.65;;;3.17;;
15637;SDS011;26604;53.596;10.042;2023-05-10T01:16:59;4.22;;;2.72;;
15637;SDS011;26604;53.596;10.042;2023-05-10T01:19:28;6.57;;;3.25;;
15637;SDS011;26604;53.596;10.042;2023-05-10T01:21:59;5.93;;;3.40;;
15637;SDS011;26604;53.596;10.042;2023-05-10T01:24:53;10.23;;;2.90;;
15637;SDS011;26604;53.596;10.042;2023-05-10T01:27:41;8.15;;;2.90;;
15637;SDS011;26604;53.596;10.042;2023-05-10T01:33:23;4.53;;;2.90;;
15637;SDS011;26604;53.596;10.042;2023-05-10T01:35:55;5.00;;;3.30;;
15637;SDS011;26604;53.596;10.042;2023-05-10T01:38:29;3.88;;;2.53;;
15637;SDS011;26604;53.596;10.042;2023-05-10T01:41:03;6.40;;;3.38;;
15637;SDS011;26604;53.596;10.042;2023-05-10T01:43:36;4.50;;;3.30;;
15637;SDS011;26604;53.596;10.042;2023-05-10T01:46:10;7.18;;;3.17;;
15637;SDS011;26604;53.596;10.042;2023-05-10T01:48:47;5.53;;;2.95;;
15637;SDS011;26604;53.596;10.042;2023-05-10T01:51:27;5.00;;;3.08;;
15637;SDS011;26604;53.596;10.042;2023-05-10T01:54:00;7.57;;;3.40;;
15637;SDS011;26604;53.596;10.042;2023-05-10T01:56:29;5.70;;;3.30;;
15637;SDS011;26604;53.596;10.042;2023-05-10T01:58:59;5.78;;;3.45;;
15637;SDS011;26604;53.596;10.042;2023-05-10T02:01:31;5.13;;;3.17;;
15637;SDS011;26604;53.596;10.042;2023-05-10T02:04:03;6.88;;;3.40;;
15637;SDS011;26604;53.596;10.042;2023-05-10T02:06:33;9.07;;;3.20;;
15637;SDS011;26604;53.596;10.042;2023-05-10T02:09:01;4.50;;;2.80;;
15637;SDS011;26604;53.596;10.042;2023-05-10T02:11:29;7.22;;;3.15;;
15637;SDS011;26604;53.596;10.042;2023-05-10T02:13:57;7.13;;;2.85;;
15637;SDS011;26604;53.596;10.042;2023-05-10T02:16:25;4.53;;;2.72;;
15637;SDS011;26604;53.596;10.042;2023-05-10T02:18:55;5.00;;;2.72;;
15637;SDS011;26604;53.596;10.042;2023-05-10T02:21:25;5.55;;;3.63;;
15637;SDS011;26604;53.596;10.042;2023-05-10T02:23:56;7.40;;;3.53;;
15637;SDS011;26604;53.596;10.042;2023-05-10T02:26:24;5.93;;;3.35;;
15637;SDS011;26604;53.596;10.042;2023-05-10T02:28:52;8.57;;;3.40;;
15637;SDS011;26604;53.596;10.042;2023-05-10T02:31:20;5.72;;;2.90;;
15637;SDS011;26604;53.596;10.042;2023-05-10T02:33:47;5.85;;;2.90;;
15637;SDS011;26604;53.596;10.042;2023-05-10T02:36:16;6.45;;;3.30;;
15637;SDS011;26604;53.596;10.042;2023-05-10T02:38:48;4.63;;;3.08;;
15637;SDS011;26604;53.596;10.042;2023-05-10T02:41:17;6.25;;;3.38;;
15637;SDS011;26604;53.596;10.042;2023-05-10T02:43:46;6.65;;;3.10;;
15637;SDS011;26604;53.596;10.042;2023-05-10T02:46:15;5.13;;;3.30;;
15637;SDS011;26604;53.596;10.042;2023-05-10T02:48:42;4.00;;;2.90;;
15637;SDS011;26604;53.596;10.042;2023-05-10T02:51:09;7.40;;;3.13;;
15637;SDS011;26604;53.596;10.042;2023-05-10T02:53:42;7.32;;;3.28;;
15637;SDS011;26604;53.596;10.042;2023-05-10T02:56:13;6.55;;;3.10;;
15637;SDS011;26604;53.596;10.042;2023-05-10T02:58:46;4.15;;;3.20;;
15637;SDS011;26604;53.596;10.042;2023-05-10T03:01:13;4.80;;;2.63;;
15637;SDS011;26604;53.596;10.042;2023-05-10T03:03:40;6.57;;;3.35;;
15637;SDS011;26604;53.596;10.042;2023-05-10T03:06:07;6.93;;;3.20;;
15637;SDS011;26604;53.596;10.042;2023-05-10T03:08:34;4.40;;;2.90;;
15637;SDS011;26604;53.596;10.042;2023-05-10T03:11:06;6.85;;;3.75;;
15637;SDS011;26604;53.596;10.042;2023-05-10T03:13:44;9.50;;;3.25;;
15637;SDS011;26604;53.596;10.042;2023-05-10T03:16:16;6.93;;;3.30;;
15637;SDS011;26604;53.596;10.042;2023-05-10T03:18:54;7.85;;;3.20;;
15637;SDS011;26604;53.596;10.042;2023-05-10T03:21:22;5.20;;;3.15;;
15637;SDS011;26604;53.596;10.042;2023-05-10T03:23:56;6.88;;;3.45;;
15637;SDS011;26604;53.596;10.042;2023-05-10T03:26:29;5.13;;;3.28;;
15637;SDS011;26604;53.596;10.042;2023-05-10T03:28:56;6.68;;;3.40;;
15637;SDS011;26604;53.596;10.042;2023-05-10T03:31:24;5.45;;;3.58;;
15637;SDS011;26604;53.596;10.042;2023-05-10T03:33:52;5.00;;;3.38;;
15637;SDS011;26604;53.596;10.042;2023-05-10T03:36:19;18.65;;;5.47;;
15637;SDS011;26604;53.596;10.042;2023-05-10T03:38:46;7.05;;;4.32;;
15637;SDS011;26604;53.596;10.042;2023-05-10T03:41:12;5.38;;;3.20;;
15637;SDS011;26604;53.596;10.042;2023-05-10T03:43:41;7.50;;;3.40;;
15637;SDS011;26604;53.596;10.042;2023-05-10T03:46:08;4.75;;;3.50;;
15637;SDS011;26604;53.596;10.042;2023-05-10T03:48:35;5.60;;;3.15;;
15637;SDS011;26604;53.596;10.042;2023-05-10T03:51:01;8.77;;;3.20;;
15637;SDS011;26604;53.596;10.042;2023-05-10T03:53:28;5.57;;;3.42;;
15637;SDS011;26604;53.596;10.042;2023-05-10T03:55:55;9.73;;;3.47;;
15637;SDS011;26604;53.596;10.042;2023-05-10T03:58:22;5.63;;;3.10;;
15637;SDS011;26604;53.596;10.042;2023-05-10T04:00:50;4.50;;;2.90;;
15637;SDS011;26604;53.596;10.042;2023-05-10T04:03:17;5.95;;;3.08;;
15637;SDS011;26604;53.596;10.042;2023-05-10T04:05:45;6.53;;;3.17;;
15637;SDS011;26604;53.596;10.042;2023-05-10T04:08:12;7.28;;;3.95;;
15637;SDS011;26604;53.596;10.042;2023-05-10T04:10:39;9.07;;;3.58;;
15637;SDS011;26604;53.596;10.042;2023-05-10T04:13:06;7.88;;;3.38;;
15637;SDS011;26604;53.596;10.042;2023-05-10T04:15:33;5.95;;;3.15;;
15637;SDS011;26604;53.596;10.042;2023-05-10T04:18:01;6.18;;;3.10;;
15637;SDS011;26604;53.596;10.042;2023-05-10T04:20:28;4.72;;;3.15;;
15637;SDS011;26604;53.596;10.042;2023-05-10T04:22:55;4.63;;;3.58;;
15637;SDS011;26604;53.596;10.042;2023-05-10T04:25:22;9.73;;;3.97;;
15637;SDS011;26604;53.596;10.042;2023-05-10T04:27:49;8.32;;;3.10;;
15637;SDS011;26604;53.596;10.042;2023-05-10T04:30:16;4.22;;;2.80;;
15637;SDS011;26604;53.596;10.042;2023-05-10T04:32:43;8.63;;;3.20;;
15637;SDS011;26604;53.596;10.042;2023-05-10T04:35:11;6.55;;;3.35;;
15637;SDS011;26604;53.596;10.042;2023-05-10T04:37:39;5.32;;;3.17;;
15637;SDS011;26604;53.596;10.042;2023-05-10T04:40:07;9.98;;;3.20;;
15637;SDS011;26604;53.596;10.042;2023-05-10T04:42:34;4.47;;;3.30;;
15637;SDS011;26604;53.596;10.042;2023-05-10T04:45:01;9.65;;;3.30;;
15637;SDS011;26604;53.596;10.042;2023-05-10T04:47:28;3.33;;;2.78;;
15637;SDS011;26604;53.596;10.042;2023-05-10T04:49:55;5.95;;;3.22;;
15637;SDS011;26604;53.596;10.042;2023-05-10T04:52:23;8.00;;;3.42;;
15637;SDS011;26604;53.596;10.042;2023-05-10T04:54:51;7.13;;;2.83;;
15637;SDS011;26604;53.596;10.042;2023-05-10T04:57:18;3.58;;;3.10;;
15637;SDS011;26604;53.596;10.042;2023-05-10T04:59:44;6.40;;;3.67;;
15637;SDS011;26604;53.596;10.042;2023-05-10T05:02:13;6.75;;;3.45;;
15637;SDS011;26604;53.596;10.042;2023-05-10T05:04:40;4.90;;;3.22;;
15637;SDS011;26604;53.596;10.042;2023-05-10T05:07:07;6.82;;;3.30;;
15637;SDS011;26604;53.596;10.042;2023-05-10T05:09:35;6.53;;;3.33;;
15637;SDS011;26604;53.596;10.042;2023-05-10T05:12:02;6.07;;;3.33;;
15637;SDS011;26604;53.596;10.042;2023-05-10T05:14:29;6.60;;;3.83;;
15637;SDS011;26604;53.596;10.042;2023-05-10T05:16:56;5.35;;;3.22;;
15637;SDS011;26604;53.596;10.042;2023-05-10T05:19:23;6.03;;;3.30;;
15637;SDS011;26604;53.596;10.042;2023-05-10T05:21:50;4.75;;;3.33;;
15637;SDS011;26604;53.596;10.042;2023-05-10T05:24:17;4.25;;;3.22;;
15637;SDS011;26604;53.596;10.042;2023-05-10T05:26:45;7.07;;;3.50;;
15637;SDS011;26604;53.596;10.042;2023-05-10T05:29:12;7.25;;;3.92;;
15637;SDS011;26604;53.596;10.042;2023-05-10T05:31:39;4.32;;;3.17;;
15637;SDS011;26604;53.596;10.042;2023-05-10T05:34:05;6.50;;;3.60;;
15637;SDS011;26604;53.596;10.042;2023-05-10T05:36:35;6.20;;;3.20;;
15637;SDS011;26604;53.596;10.042;2023-05-10T05:39:03;4.88;;;3.45;;
15637;SDS011;26604;53.596;10.042;2023-05-10T05:41:30;4.28;;;3.10;;
15637;SDS011;26604;53.596;10.042;2023-05-10T05:43:58;7.15;;;3.67;;
15637;SDS011;26604;53.596;10.042;2023-05-10T05:46:25;7.38;;;3.50;;
15637;SDS011;26604;53.596;10.042;2023-05-10T05:48:52;9.25;;;3.00;;
15637;SDS011;26604;53.596;10.042;2023-05-10T05:51:18;3.28;;;2.85;;
15637;SDS011;26604;53.596;10.042;2023-05-10T05:53:45;10.18;;;3.40;;
15637;SDS011;26604;53.596;10.042;2023-05-10T05:56:12;15.55;;;3.90;;
15637;SDS011;26604;53.596;10.042;2023-05-10T05:58:39;9.73;;;3.60;;
15637;SDS011;26604;53.596;10.042;2023-05-10T06:01:07;7.40;;;3.97;;
15637;SDS011;26604;53.596;10.042;2023-05-10T06:03:34;6.90;;;3.05;;
15637;SDS011;26604;53.596;10.042;2023-05-10T06:06:01;6.70;;;3.33;;
15637;SDS011;26604;53.596;10.042;2023-05-10T06:08:28;5.25;;;2.80;;
15637;SDS011;26604;53.596;10.042;2023-05-10T06:10:55;6.45;;;3.20;;
15637;SDS011;26604;53.596;10.042;2023-05-10T06:13:21;4.57;;;3.08;;
15637;SDS011;26604;53.596;10.042;2023-05-10T06:15:48;6.85;;;3.70;;
15637;SDS011;26604;53.596;10.042;2023-05-10T06:18:17;4.00;;;3.05;;
15637;SDS011;26604;53.596;10.042;2023-05-10T06:20:44;7.38;;;3.22;;
15637;SDS011;26604;53.596;10.042;2023-05-10T06:23:11;7.50;;;3.17;;
15637;SDS011;26604;53.596;10.042;2023-05-10T06:25:37;9.20;;;3.42;;
15637;SDS011;26604;53.596;10.042;2023-05-10T06:28:05;5.10;;;3.33;;
15637;SDS011;26604;53.596;10.042;2023-05-10T06:30:32;7.25;;;3.30;;
15637;SDS011;26604;53.596;10.042;2023-05-10T06:32:58;8.63;;;3.60;;
15637;SDS011;26604;53.596;10.042;2023-05-10T06:35:27;7.00;;;3.53;;
15637;SDS011;26604;53.596;10.042;2023-05-10T06:37:54;6.30;;;3.30;;
15637;SDS011;26604;53.596;10.042;2023-05-10T06:40:21;9.65;;;3.97;;
15637;SDS011;26604;53.596;10.042;2023-05-10T06:42:48;6.78;;;3.33;;
15637;SDS011;26604;53.596;10.042;2023-05-10T06:45:15;5.13;;;3.00;;
15637;SDS011;26604;53.596;10.042;2023-05-10T06:47:42;15.65;;;3.72;;
15637;SDS011;26604;53.596;10.042;2023-05-10T06:50:09;9.02;;;3.47;;
15637;SDS011;26604;53.596;10.042;2023-05-10T06:52:38;6.85;;;3.63;;
15637;SDS011;26604;53.596;10.042;2023-05-10T06:55:06;6.50;;;3.55;;
15637;SDS011;26604;53.596;10.042;2023-05-10T06:57:33;6.90;;;3.75;;
15637;SDS011;26604;53.596;10.042;2023-05-10T07:00:00;8.48;;;3.30;;
15637;SDS011;26604;53.596;10.042;2023-05-10T07:02:29;3.53;;;3.03;;
15637;SDS011;26604;53.596;10.042;2023-05-10T07:04:55;7.18;;;3.13;;
15637;SDS011;26604;53.596;10.042;2023-05-10T07:07:22;5.72;;;3.25;;
15637;SDS011;26604;53.596;10.042;2023-05-10T07:09:51;18.25;;;4.35;;
15637;SDS011;26604;53.596;10.042;2023-05-10T07:12:17;5.85;;;3.35;;
15637;SDS011;26604;53.596;10.042;2023-05-10T07:14:44;4.95;;;3.13;;
15637;SDS011;26604;53.596;10.042;2023-05-10T07:17:11;6.93;;;3.80;;
15637;SDS011;26604;53.596;10.042;2023-05-10T07:19:38;16.73;;;4.90;;
15637;SDS011;26604;53.596;10.042;2023-05-10T07:22:05;8.75;;;3.80;;
15637;SDS011;26604;53.596;10.042;2023-05-10T07:24:33;7.05;;;3.45;;
15637;SDS011;26604;53.596;10.042;2023-05-10T07:27:01;4.22;;;3.03;;
15637;SDS011;26604;53.596;10.042;2023-05-10T07:29:29;6.80;;;3.28;;
15637;SDS011;26604;53.596;10.042;2023-05-10T07:31:56;7.68;;;3.50;;
15637;SDS011;26604;53.596;10.042;2023-05-10T07:34:23;6.97;;;3.58;;
15637;SDS011;26604;53.596;10.042;2023-05-10T07:36:50;5.28;;;3.50;;
15637;SDS011;26604;53.596;10.042;2023-05-10T07:39:17;6.35;;;3.60;;
15637;SDS011;26604;53.596;10.042;2023-05-10T07:41:45;5.28;;;3.50;;
15637;SDS011;26604;53.596;10.042;2023-05-10T07:44:13;7.75;;;4.30;;
15637;SDS011;26604;53.596;10.042;2023-05-10T07:46:43;16.85;;;8.60;;
15637;SDS011;26604;53.596;10.042;2023-05-10T07:49:10;6.63;;;3.60;;
15637;SDS011;26604;53.596;10.042;2023-05-10T07:51:37;7.13;;;3.88;;
15637;SDS011;26604;53.596;10.042;2023-05-10T07:54:03;8.10;;;4.22;;
15637;SDS011;26604;53.596;10.042;2023-05-10T07:56:31;7.60;;;3.78;;
15637;SDS011;26604;53.596;10.042;2023-05-10T07:58:59;58.00;;;6.38;;
15637;SDS011;26604;53.596;10.042;2023-05-10T08:01:29;5.22;;;3.60;;
15637;SDS011;26604;53.596;10.042;2023-05-10T08:03:57;9.18;;;3.45;;
15637;SDS011;26604;53.596;10.042;2023-05-10T08:06:24;4.47;;;2.88;;
15637;SDS011;26604;53.596;10.042;2023-05-10T08:08:52;9.77;;;3.47;;
15637;SDS011;26604;53.596;10.042;2023-05-10T08:11:19;6.15;;;3.70;;
15637;SDS011;26604;53.596;10.042;2023-05-10T08:13:46;22.30;;;4.60;;
15637;SDS011;26604;53.596;10.042;2023-05-10T08:16:15;23.27;;;4.47;;
15637;SDS011;26604;53.596;10.042;2023-05-10T08:18:44;20.65;;;4.65;;
15637;SDS011;26604;53.596;10.042;2023-05-10T08:21:11;168.60;;;12.73;;
15637;SDS011;26604;53.596;10.042;2023-05-10T08:23:38;9.70;;;4.05;;
15637;SDS011;26604;53.596;10.042;2023-05-10T08:26:05;47.67;;;6.13;;
15637;SDS011;26604;53.596;10.042;2023-05-10T08:28:32;57.45;;;7.30;;
15637;SDS011;26604;53.596;10.042;2023-05-10T08:30:59;15.68;;;4.57;;
15637;SDS011;26604;53.596;10.042;2023-05-10T08:33:26;33.65;;;4.63;;
15637;SDS011;26604;53.596;10.042;2023-05-10T08:35:54;11.73;;;3.92;;
15637;SDS011;26604;53.596;10.042;2023-05-10T08:38:21;11.20;;;4.03;;
15637;SDS011;26604;53.596;10.042;2023-05-10T08:40:48;5.70;;;3.67;;
15637;SDS011;26604;53.596;10.042;2023-05-10T08:43:15;7.60;;;3.75;;
15637;SDS011;26604;53.596;10.042;2023-05-10T08:45:43;4.70;;;3.60;;
15637;SDS011;26604;53.596;10.042;2023-05-10T08:48:11;32.13;;;6.13;;
15637;SDS011;26604;53.596;10.042;2023-05-10T08:50:40;10.88;;;4.93;;
15637;SDS011;26604;53.596;10.042;2023-05-10T08:53:11;18.38;;;6.30;;
15637;SDS011;26604;53.596;10.042;2023-05-10T08:55:38;12.23;;;4.90;;
15637;SDS011;26604;53.596;10.042;2023-05-10T08:58:07;15.98;;;4.38;;
15637;SDS011;26604;53.596;10.042;2023-05-10T09:00:34;11.60;;;5.32;;
15637;SDS011;26604;53.596;10.042;2023-05-10T09:03:02;10.40;;;3.90;;
15637;SDS011;26604;53.596;10.042;2023-05-10T09:05:30;3.92;;;3.30;;
15637;SDS011;26604;53.596;10.042;2023-05-10T09:07:58;8.27;;;4.03;;
15637;SDS011;26604;53.596;10.042;2023-05-10T09:10:26;6.70;;;3.17;;
15637;SDS011;26604;53.596;10.042;2023-05-10T09:12:54;6.72;;;3.90;;
15637;SDS011;26604;53.596;10.042;2023-05-10T09:15:22;6.55;;;4.10;;
15637;SDS011;26604;53.596;10.042;2023-05-10T09:17:50;11.13;;;4.05;;
15637;SDS011;26604;53.596;10.042;2023-05-10T09:20:17;5.60;;;3.85;;
15637;SDS011;26604;53.596;10.042;2023-05-10T09:22:45;12.77;;;3.90;;
15637;SDS011;26604;53.596;10.042;2023-05-10T09:25:13;10.10;;;3.83;;
15637;SDS011;26604;53.596;10.042;2023-05-10T09:27:44;7.63;;;3.90;;
15637;SDS011;26604;53.596;10.042;2023-05-10T09:30:15;7.00;;;3.50;;
15637;SDS011;26604;53.596;10.042;2023-05-10T09:32:43;7.60;;;3.90;;
15637;SDS011;26604;53.596;10.042;2023-05-10T09:35:12;7.20;;;3.47;;
15637;SDS011;26604;53.596;10.042;2023-05-10T09:37:40;7.90;;;3.80;;
15637;SDS011;26604;53.596;10.042;2023-05-10T09:40:11;6.15;;;4.05;;
15637;SDS011;26604;53.596;10.042;2023-05-10T09:42:39;9.40;;;3.50;;
15637;SDS011;26604;53.596;10.042;2023-05-10T09:45:09;13.50;;;4.32;;
15637;SDS011;26604;53.596;10.042;2023-05-10T09:47:36;7.97;;;4.22;;
15637;SDS011;26604;53.596;10.042;2023-05-10T09:50:03;9.73;;;4.22;;
15637;SDS011;26604;53.596;10.042;2023-05-10T09:52:31;12.07;;;4.05;;
15637;SDS011;26604;53.596;10.042;2023-05-10T09:55:12;8.10;;;4.55;;
15637;SDS011;26604;53.596;10.042;2023-05-10T09:57:39;9.85;;;3.80;;
15637;SDS011;26604;53.596;10.042;2023-05-10T10:00:08;10.52;;;4.25;;
15637;SDS011;26604;53.596;10.042;2023-05-10T10:02:36;14.07;;;4.20;;
15637;SDS011;26604;53.596;10.042;2023-05-10T10:05:03;6.97;;;4.75;;
15637;SDS011;26604;53.596;10.042;2023-05-10T10:07:32;8.02;;;4.30;;
15637;SDS011;26604;53.596;10.042;2023-05-10T10:10:00;9.85;;;4.65;;
15637;SDS011;26604;53.596;10.042;2023-05-10T10:12:27;7.15;;;4.35;;
15637;SDS011;26604;53.596;10.042;2023-05-10T10:14:56;8.98;;;4.60;;
15637;SDS011;26604;53.596;10.042;2023-05-10T10:17:23;12.13;;;5.57;;
15637;SDS011;26604;53.596;10.042;2023-05-10T10:19:53;12.60;;;5.53;;
15637;SDS011;26604;53.596;10.042;2023-05-10T10:22:21;9.98;;;5.65;;
15637;SDS011;26604;53.596;10.042;2023-05-10T10:24:48;12.20;;;5.57;;
15637;SDS011;26604;53.596;10.042;2023-05-10T10:27:19;9.55;;;5.40;;
15637;SDS011;26604;53.596;10.042;2023-05-10T10:29:52;9.35;;;5.28;;
15637;SDS011;26604;53.596;10.042;2023-05-10T10:32:33;6.63;;;4.97;;
15637;SDS011;26604;53.596;10.042;2023-05-10T10:35:08;7.13;;;5.43;;
15637;SDS011;26604;53.596;10.042;2023-05-10T10:37:44;8.77;;;5.43;;
15637;SDS011;26604;53.596;10.042;2023-05-10T10:40:25;9.25;;;4.72;;
15637;SDS011;26604;53.596;10.042;2023-05-10T10:42:53;9.68;;;6.10;;
15637;SDS011;26604;53.596;10.042;2023-05-10T10:45:22;10.70;;;5.43;;
15637;SDS011;26604;53.596;10.042;2023-05-10T10:47:53;8.60;;;6.13;;
15637;SDS011;26604;53.596;10.042;2023-05-10T10:50:42;9.93;;;6.07;;
15637;SDS011;26604;53.596;10.042;2023-05-10T10:53:10;8.90;;;6.18;;
15637;SDS011;26604;53.596;10.042;2023-05-10T10:55:44;9.32;;;5.93;;
15637;SDS011;26604;53.596;10.042;2023-05-10T10:58:28;9.88;;;5.50;;
15637;SDS011;26604;53.596;10.042;2023-05-10T11:01:10;8.23;;;5.95;;
15637;SDS011;26604;53.596;10.042;2023-05-10T11:03:38;7.93;;;5.35;;
15637;SDS011;26604;53.596;10.042;2023-05-10T11:06:05;9.07;;;5.97;;
15637;SDS011;26604;53.596;10.042;2023-05-10T11:08:33;11.38;;;6.38;;
15637;SDS011;26604;53.596;10.042;2023-05-10T11:11:07;9.07;;;6.35;;
15637;SDS011;26604;53.596;10.042;2023-05-10T11:13:36;9.57;;;6.60;;
15637;SDS011;26604;53.596;10.042;2023-05-10T11:16:16;19.45;;;6.47;;
15637;SDS011;26604;53.596;10.042;2023-05-10T11:18:54;13.65;;;6.95;;
15637;SDS011;26604;53.596;10.042;2023-05-10T11:21:24;10.80;;;6.07;;
15637;SDS011;26604;53.596;10.042;2023-05-10T11:23:52;15.02;;;5.97;;
15637;SDS011;26604;53.596;10.042;2023-05-10T11:26:22;12.30;;;5.65;;
15637;SDS011;26604;53.596;10.042;2023-05-10T11:28:50;9.35;;;5.28;;
15637;SDS011;26604;53.596;10.042;2023-05-10T11:31:21;8.70;;;5.63;;
15637;SDS011;26604;53.596;10.042;2023-05-10T11:33:52;11.02;;;5.45;;
15637;SDS011;26604;53.596;10.042;2023-05-10T11:36:21;11.35;;;5.90;;
15637;SDS011;26604;53.596;10.042;2023-05-10T11:38:50;15.45;;;6.32;;
15637;SDS011;26604;53.596;10.042;2023-05-10T11:41:17;8.13;;;5.38;;
15637;SDS011;26604;53.596;10.042;2023-05-10T11:43:47;8.30;;;5.40;;
15637;SDS011;26604;53.596;10.042;2023-05-10T11:46:16;7.65;;;5.32;;
15637;SDS011;26604;53.596;10.042;2023-05-10T11:48:47;10.98;;;6.10;;
15637;SDS011;26604;53.596;10.042;2023-05-10T11:51:19;7.35;;;6.07;;
15637;SDS011;26604;53.596;10.042;2023-05-10T11:53:47;11.13;;;6.95;;
15637;SDS011;26604;53.596;10.042;2023-05-10T11:56:15;7.45;;;5.78;;
15637;SDS011;26604;53.596;10.042;2023-05-10T11:58:42;10.48;;;6.93;;
15637;SDS011;26604;53.596;10.042;2023-05-10T12:01:09;12.32;;;7.07;;
15637;SDS011;26604;53.596;10.042;2023-05-10T12:03:36;15.13;;;7.18;;
15637;SDS011;26604;53.596;10.042;2023-05-10T12:06:06;11.68;;;7.57;;
15637;SDS011;26604;53.596;10.042;2023-05-10T12:08:33;10.00;;;7.22;;
15637;SDS011;26604;53.596;10.042;2023-05-10T12:11:04;11.07;;;7.40;;
15637;SDS011;26604;53.596;10.042;2023-05-10T12:13:32;10.70;;;7.32;;
15637;SDS011;26604;53.596;10.042;2023-05-10T12:16:11;11.98;;;7.63;;
15637;SDS011;26604;53.596;10.042;2023-05-10T12:18:39;12.18;;;8.55;;
15637;SDS011;26604;53.596;10.042;2023-05-10T12:21:08;12.45;;;7.80;;
15637;SDS011;26604;53.596;10.042;2023-05-10T12:23:35;11.10;;;7.32;;
15637;SDS011;26604;53.596;10.042;2023-05-10T12:26:02;11.27;;;7.25;;
15637;SDS011;26604;53.596;10.042;2023-05-10T12:28:30;9.57;;;6.60;;
15637;SDS011;26604;53.596;10.042;2023-05-10T12:30:58;9.48;;;7.10;;
15637;SDS011;26604;53.596;10.042;2023-05-10T12:33:25;8.75;;;7.05;;
15637;SDS011;26604;53.596;10.042;2023-05-10T12:35:52;10.68;;;7.47;;
15637;SDS011;26604;53.596;10.042;2023-05-10T12:38:29;9.88;;;6.80;;
15637;SDS011;26604;53.596;10.042;2023-05-10T12:41:01;9.73;;;6.43;;
15637;SDS011;26604;53.596;10.042;2023-05-10T12:43:29;7.88;;;5.90;;
15637;SDS011;26604;53.596;10.042;2023-05-10T12:45:56;10.30;;;6.53;;
15637;SDS011;26604;53.596;10.042;2023-05-10T12:48:24;10.52;;;6.80;;
15637;SDS011;26604;53.596;10.042;2023-05-10T12:50:51;8.93;;;5.95;;
15637;SDS011;26604;53.596;10.042;2023-05-10T12:53:17;7.45;;;5.80;;
15637;SDS011;26604;53.596;10.042;2023-05-10T12:55:46;6.60;;;5.32;;
15637;SDS011;26604;53.596;10.042;2023-05-10T12:58:13;8.85;;;5.78;;
15637;SDS011;26604;53.596;10.042;2023-05-10T13:00:40;8.02;;;5.75;;
15637;SDS011;26604;53.596;10.042;2023-05-10T13:03:07;11.40;;;5.95;;
15637;SDS011;26604;53.596;10.042;2023-05-10T13:05:35;9.55;;;5.20;;
15637;SDS011;26604;53.596;10.042;2023-05-10T13:08:02;6.07;;;5.40;;
15637;SDS011;26604;53.596;10.042;2023-05-10T13:10:29;6.32;;;5.30;;
15637;SDS011;26604;53.596;10.042;2023-05-10T13:12:58;11.93;;;5.50;;
15637;SDS011;26604;53.596;10.042;2023-05-10T13:15:25;8.50;;;6.45;;
15637;SDS011;26604;53.596;10.042;2023-05-10T13:17:52;10.23;;;6.78;;
15637;SDS011;26604;53.596;10.042;2023-05-10T13:20:20;8.23;;;6.78;;
15637;SDS011;26604;53.596;10.042;2023-05-10T13:22:46;32.33;;;7.65;;
15637;SDS011;26604;53.596;10.042;2023-05-10T13:25:13;7.45;;;5.57;;
15637;SDS011;26604;53.596;10.042;2023-05-10T13:27:40;6.85;;;4.80;;
15637;SDS011;26604;53.596;10.042;2023-05-10T13:30:09;13.50;;;4.75;;
15637;SDS011;26604;53.596;10.042;2023-05-10T13:32:37;7.28;;;4.80;;
15637;SDS011;26604;53.596;10.042;2023-05-10T13:35:04;6.82;;;4.80;;
15637;SDS011;26604;53.596;10.042;2023-05-10T13:37:32;5.90;;;4.47;;
15637;SDS011;26604;53.596;10.042;2023-05-10T13:40:02;39.67;;;6.50;;
15637;SDS011;26604;53.596;10.042;2023-05-10T13:42:30;17.85;;;5.90;;
15637;SDS011;26604;53.596;10.042;2023-05-10T13:44:58;8.00;;;5.20;;
15637;SDS011;26604;53.596;10.042;2023-05-10T13:47:27;7.88;;;4.88;;
15637;SDS011;26604;53.596;10.042;2023-05-10T13:49:54;6.22;;;4.63;;
15637;SDS011;26604;53.596;10.042;2023-05-10T13:52:21;6.80;;;4.80;;
15637;SDS011;26604;53.596;10.042;2023-05-10T13:54:47;10.90;;;4.35;;
15637;SDS011;26604;53.596;10.042;2023-05-10T13:57:14;75.15;;;8.88;;
15637;SDS011;26604;53.596;10.042;2023-05-10T13:59:41;12.73;;;8.10;;
15637;SDS011;26604;53.596;10.042;2023-05-10T14:02:08;13.32;;;9.55;;
15637;SDS011;26604;53.596;10.042;2023-05-10T14:04:38;10.48;;;4.55;;
15637;SDS011;26604;53.596;10.042;2023-05-10T14:07:05;7.22;;;4.38;;
15637;SDS011;26604;53.596;10.042;2023-05-10T14:09:32;7.47;;;5.45;;
15637;SDS011;26604;53.596;10.042;2023-05-10T14:11:59;5.90;;;4.50;;
15637;SDS011;26604;53.596;10.042;2023-05-10T14:14:25;6.38;;;4.65;;
15637;SDS011;26604;53.596;10.042;2023-05-10T14:16:54;7.32;;;5.28;;
15637;SDS011;26604;53.596;10.042;2023-05-10T14:19:20;6.90;;;4.82;;
15637;SDS011;26604;53.596;10.042;2023-05-10T14:21:49;6.30;;;4.95;;
15637;SDS011;26604;53.596;10.042;2023-05-10T14:24:17;8.98;;;5.30;;
15637;SDS011;26604;53.596;10.042;2023-05-10T14:26:43;6.80;;;4.97;;
15637;SDS011;26604;53.596;10.042;2023-05-10T14:29:10;8.93;;;4.97;;
15637;SDS011;26604;53.596;10.042;2023-05-10T14:31:37;37.22;;;7.32;;
15637;SDS011;26604;53.596;10.042;2023-05-10T14:34:04;7.53;;;5.47;;
15637;SDS011;26604;53.596;10.042;2023-05-10T14:36:31;7.75;;;4.82;;
15637;SDS011;26604;53.596;10.042;2023-05-10T14:39:00;8.80;;;4.93;;
15637;SDS011;26604;53.596;10.042;2023-05-10T14:41:27;9.15;;;4.97;;